Time;durP1;ratioP1;P1;durP2;ratioP2;P2;SDS_P1;SDS_P2;PMS_P1;PMS_P2;Temp;Humidity;BMP_temperature;BMP_pressure;BME280_temperature;BME280_humidity;BME280_pressure;Samples;Min_cycle;Max_cycle;Signal;HPM_P1;HPM_P2
2021/08/18 00:01:17;;;;;;;50.45;26.13;;;;;;;14.41;100.00;101018.16;4965622;28;20038;-82
2021/08/18 00:03:42;;;;;;;43.22;23.65;;;;;;;14.39;100.00;101006.72;4977034;28;20529;-83
2021/08/18 00:06:09;;;;;;;45.65;23.98;;;;;;;14.41;100.00;101007.34;4962816;28;20039;-82
2021/08/18 00:08:34;;;;;;;49.45;24.67;;;;;;;14.42;100.00;101012.59;4961938;28;20400;-82
2021/08/18 00:11:00;;;;;;;49.22;26.33;;;;;;;14.43;100.00;101010.72;4978026;28;20054;-82
2021/08/18 00:13:26;;;;;;;45.22;22.83;;;;;;;14.42;100.00;101007.19;4963342;28;20468;-82
2021/08/18 00:15:52;;;;;;;46.08;23.00;;;;;;;14.39;100.00;101009.41;4964857;28;20137;-82
2021/08/18 00:18:18;;;;;;;43.33;24.13;;;;;;;14.38;100.00;101010.44;4964618;28;20510;-83
2021/08/18 00:20:44;;;;;;;43.65;24.40;;;;;;;14.41;100.00;101019.03;4963231;28;20047;-83
2021/08/18 00:23:09;;;;;;;40.80;23.08;;;;;;;14.40;100.00;101008.38;4961665;28;20096;-82
2021/08/18 00:25:35;;;;;;;42.33;21.23;;;;;;;14.44;100.00;101006.97;4962969;28;20130;-83
2021/08/18 00:28:00;;;;;;;45.90;21.77;;;;;;;14.42;100.00;101014.44;4963900;28;20050;-81
2021/08/18 00:30:27;;;;;;;41.97;22.88;;;;;;;14.40;100.00;101013.78;4962693;28;20441;-82
2021/08/18 00:32:53;;;;;;;38.90;18.98;;;;;;;14.40;100.00;101011.91;4964906;28;20039;-82
2021/08/18 00:35:19;;;;;;;32.28;17.20;;;;;;;14.38;100.00;101007.72;4975607;28;20047;-82
2021/08/18 00:37:45;;;;;;;31.58;17.58;;;;;;;14.39;100.00;101009.41;4960466;28;20750;-82
2021/08/18 00:40:12;;;;;;;30.83;16.38;;;;;;;14.40;100.00;101016.50;4969592;28;20051;-82
2021/08/18 00:42:38;;;;;;;28.38;16.50;;;;;;;14.35;100.00;101008.94;4972237;28;20291;-82
2021/08/18 00:45:04;;;;;;;33.50;17.17;;;;;;;14.39;100.00;101004.03;4962120;28;20125;-82
2021/08/18 00:47:30;;;;;;;28.65;16.40;;;;;;;14.39;100.00;101009.41;4977310;28;20564;-82
2021/08/18 00:49:55;;;;;;;29.52;16.75;;;;;;;14.37;100.00;101008.75;4977968;28;20101;-82
2021/08/18 00:52:20;;;;;;;27.73;14.95;;;;;;;14.36;100.00;101009.78;4962253;28;20097;-82
2021/08/18 00:54:46;;;;;;;25.23;15.23;;;;;;;14.37;100.00;101011.47;4968540;28;20148;-82
2021/08/18 00:57:11;;;;;;;26.48;14.82;;;;;;;14.33;100.00;101004.75;4959283;28;20074;-81
2021/08/18 00:59:37;;;;;;;26.45;13.18;;;;;;;14.32;100.00;101005.75;4966133;28;20055;-81
2021/08/18 01:02:04;;;;;;;22.60;13.52;;;;;;;14.30;100.00;101005.09;4979220;28;20053;-82
2021/08/18 01:04:30;;;;;;;23.33;12.88;;;;;;;14.30;100.00;100997.00;4983169;28;20491;-82
2021/08/18 01:06:55;;;;;;;23.00;13.27;;;;;;;14.32;100.00;101003.06;4988083;28;20050;-82
2021/08/18 01:09:21;;;;;;;24.08;13.93;;;;;;;14.30;100.00;100999.69;4985700;28;20046;-83
2021/08/18 01:11:50;;;;;;;23.90;13.38;;;;;;;14.28;100.00;100996.38;5001602;28;20042;-81
2021/08/18 01:14:17;;;;;;;25.08;14.82;;;;;;;14.28;100.00;101001.78;4986719;28;20128;-82
2021/08/18 01:16:45;;;;;;;27.77;16.75;;;;;;;14.32;100.00;101003.91;4986415;28;20081;-82
2021/08/18 01:19:16;;;;;;;28.55;15.85;;;;;;;14.34;100.00;101004.56;5001562;28;20107;-81
2021/08/18 01:21:42;;;;;;;29.67;15.05;;;;;;;14.33;100.00;100999.38;4985694;28;20046;-81
2021/08/18 01:24:08;;;;;;;29.58;14.77;;;;;;;14.32;100.00;101006.59;4985994;28;20050;-82
2021/08/18 01:26:35;;;;;;;31.77;17.33;;;;;;;14.35;100.00;101005.41;4984161;28;20549;-82
2021/08/18 01:29:01;;;;;;;32.10;17.58;;;;;;;14.32;100.00;101003.06;4985857;28;20392;-81
2021/08/18 01:31:27;;;;;;;32.65;18.05;;;;;;;14.34;100.00;101003.72;4985808;28;20050;-82
2021/08/18 01:33:53;;;;;;;37.70;18.27;;;;;;;14.36;100.00;101001.69;4985882;28;20031;-82
2021/08/18 01:36:19;;;;;;;36.47;20.50;;;;;;;14.33;100.00;101011.00;4985532;28;20054;-81
2021/08/18 01:38:45;;;;;;;36.28;18.88;;;;;;;14.36;100.00;101013.31;4985320;28;20073;-82
2021/08/18 01:41:10;;;;;;;37.25;20.77;;;;;;;14.40;100.00;101011.91;4975585;28;20077;-82
2021/08/18 01:43:36;;;;;;;38.38;20.90;;;;;;;14.43;100.00;101016.94;4966005;28;20042;-81
2021/08/18 01:46:01;;;;;;;37.75;19.15;;;;;;;14.43;100.00;101016.13;4980519;28;20209;-81
2021/08/18 01:48:29;;;;;;;36.05;18.05;;;;;;;14.41;100.00;101018.16;4982316;28;20050;-82
2021/08/18 01:50:56;;;;;;;28.98;15.52;;;;;;;14.40;100.00;101008.38;4982410;28;20050;-82
2021/08/18 01:53:34;;;;;;;27.67;16.88;;;;;;;14.34;100.00;101001.03;4981966;28;20045;-82
2021/08/18 01:56:08;;;;;;;24.40;14.20;;;;;;;14.34;100.00;101009.13;4981938;28;20268;-82
2021/08/18 01:58:34;;;;;;;26.38;15.32;;;;;;;14.35;100.00;101003.53;4979261;28;20492;-82
2021/08/18 02:01:01;;;;;;;23.10;14.32;;;;;;;14.33;100.00;101002.91;4965437;28;20055;-81
2021/08/18 02:03:26;;;;;;;22.58;13.63;;;;;;;14.30;100.00;100997.88;4977548;28;20047;-82
2021/08/18 02:05:52;;;;;;;21.33;12.10;;;;;;;14.30;100.00;100997.00;4977896;28;20054;-81
2021/08/18 02:08:17;;;;;;;17.65;10.80;;;;;;;14.26;100.00;100999.25;4950717;28;20854;-82
2021/08/18 02:10:43;;;;;;;15.25;10.15;;;;;;;14.26;100.00;101001.94;4967128;28;20053;-83
2021/08/18 02:13:10;;;;;;;13.88;9.05;;;;;;;14.28;100.00;101002.59;4966486;28;20050;-82
2021/08/18 02:15:37;;;;;;;14.18;8.05;;;;;;;14.25;100.00;101008.38;4980188;28;20050;-82
2021/08/18 02:18:04;;;;;;;13.75;8.30;;;;;;;14.19;100.00;101007.25;4966257;28;20132;-82
2021/08/18 02:20:33;;;;;;;13.85;8.60;;;;;;;14.23;100.00;101013.94;4948797;28;20054;-81
2021/08/18 02:22:58;;;;;;;14.57;9.47;;;;;;;14.22;100.00;101006.03;4966017;28;20050;-82
2021/08/18 02:25:25;;;;;;;17.15;10.50;;;;;;;14.26;100.00;101009.19;4964542;28;20496;-81
2021/08/18 02:27:50;;;;;;;18.13;10.82;;;;;;;14.25;100.00;101018.34;4979760;28;20043;-82
2021/08/18 02:30:22;;;;;;;19.00;11.65;;;;;;;14.23;100.00;101005.84;4965940;28;20137;-82
2021/08/18 02:32:48;;;;;;;20.88;13.20;;;;;;;14.26;100.00;101009.19;4967161;28;20038;-82
2021/08/18 02:35:14;;;;;;;22.83;13.38;;;;;;;14.27;100.00;101014.44;4964619;28;20047;-82
2021/08/18 02:37:40;;;;;;;25.63;16.02;;;;;;;14.30;100.00;101014.06;4964762;28;20039;-82
2021/08/18 02:40:07;;;;;;;25.63;14.88;;;;;;;14.33;100.00;101004.75;4964048;28;20047;-82
2021/08/18 02:42:33;;;;;;;25.88;15.82;;;;;;;14.34;100.00;101001.03;4965631;28;20054;-82
2021/08/18 02:44:59;;;;;;;26.58;16.00;;;;;;;14.38;100.00;100994.22;4962592;28;20050;-82
2021/08/18 02:47:24;;;;;;;29.42;17.30;;;;;;;14.36;100.00;101004.41;4961482;28;20047;-83
2021/08/18 02:49:50;;;;;;;26.38;16.52;;;;;;;14.39;100.00;100995.94;4964845;28;20056;-82
2021/08/18 02:52:15;;;;;;;28.98;17.02;;;;;;;14.40;100.00;100998.44;4963682;28;20484;-82
2021/08/18 02:54:41;;;;;;;28.63;17.13;;;;;;;14.41;100.00;100993.84;4965434;28;20043;-82
2021/08/18 02:57:06;;;;;;;33.10;19.35;;;;;;;14.42;100.00;101001.78;4948743;28;20061;-82
2021/08/18 02:59:32;;;;;;;32.92;19.52;;;;;;;14.45;100.00;101000.59;4965783;28;20488;-83
2021/08/18 03:01:58;;;;;;;34.88;18.13;;;;;;;14.45;100.00;100997.88;4979565;28;20041;-82
2021/08/18 03:04:23;;;;;;;32.25;17.70;;;;;;;14.45;100.00;101003.28;4964597;28;20062;-82
2021/08/18 03:06:48;;;;;;;32.95;19.15;;;;;;;14.46;100.00;100999.56;4963058;28;20041;-83
2021/08/18 03:09:14;;;;;;;31.00;18.65;;;;;;;14.50;100.00;100994.59;4961857;28;20043;-82
2021/08/18 03:11:39;;;;;;;31.63;17.95;;;;;;;14.48;100.00;101000.22;4963152;28;20059;-82
2021/08/18 03:14:05;;;;;;;32.70;18.10;;;;;;;14.46;100.00;100996.84;4964465;28;20038;-81
2021/08/18 03:16:31;;;;;;;34.38;18.95;;;;;;;14.44;100.00;100997.06;4959734;28;20054;-83
2021/08/18 03:18:57;;;;;;;27.15;16.50;;;;;;;14.49;100.00;100988.38;4959376;28;20050;-84
2021/08/18 03:21:23;;;;;;;33.20;18.27;;;;;;;14.48;100.00;100997.50;4963677;28;20436;-82
2021/08/18 03:23:48;;;;;;;31.50;18.67;;;;;;;14.49;100.00;100993.78;4965408;28;20046;-83
2021/08/18 03:26:14;;;;;;;32.63;17.98;;;;;;;14.48;100.00;100999.38;4976096;28;20068;-84
2021/08/18 03:28:39;;;;;;;31.33;18.25;;;;;;;14.48;100.00;100994.81;4954442;28;20567;-82
2021/08/18 03:31:04;;;;;;;31.05;17.80;;;;;;;14.47;100.00;101001.22;4965262;28;20502;-83
2021/08/18 03:33:30;;;;;;;32.72;18.35;;;;;;;14.48;100.00;100992.13;4984284;28;20049;-82
2021/08/18 03:35:55;;;;;;;31.90;18.75;;;;;;;14.46;100.00;100994.16;4984119;28;20046;-82
2021/08/18 03:38:21;;;;;;;33.35;19.20;;;;;;;14.48;100.00;100996.69;4978054;28;20061;-83
2021/08/18 03:40:46;;;;;;;33.28;19.58;;;;;;;14.47;100.00;100995.81;4966881;28;20082;-82
2021/08/18 03:43:13;;;;;;;36.45;20.27;;;;;;;14.48;100.00;100994.81;4982991;28;20427;-82
2021/08/18 03:45:39;;;;;;;36.25;20.05;;;;;;;14.50;100.00;101000.88;4984877;28;20527;-82
2021/08/18 03:48:04;;;;;;;35.75;20.65;;;;;;;14.52;100.00;101000.69;4981113;28;20046;-82
2021/08/18 03:50:30;;;;;;;37.65;21.90;;;;;;;14.56;100.00;101002.03;4980926;28;20061;-83
2021/08/18 03:52:55;;;;;;;40.50;22.63;;;;;;;14.57;100.00;101001.00;4983283;28;20238;-83
2021/08/18 03:55:21;;;;;;;38.25;21.58;;;;;;;14.60;100.00;101006.84;4984076;28;20181;-82
2021/08/18 03:57:46;;;;;;;40.83;21.70;;;;;;;14.60;100.00;101004.16;4985641;28;20042;-82
2021/08/18 04:00:15;;;;;;;39.05;21.60;;;;;;;14.58;100.00;101003.50;4997407;28;20394;-83
2021/08/18 04:02:41;;;;;;;42.72;22.75;;;;;;;14.56;100.00;100993.94;4996895;28;20062;-81
2021/08/18 04:05:08;;;;;;;40.20;20.65;;;;;;;14.57;100.00;100996.44;5011634;28;20160;-82
2021/08/18 04:07:33;;;;;;;40.38;22.67;;;;;;;14.57;100.00;101007.22;4998749;28;20127;-83
2021/08/18 04:09:59;;;;;;;42.00;22.40;;;;;;;14.58;100.00;101011.59;4965837;28;20046;-82
2021/08/18 04:12:25;;;;;;;40.10;22.42;;;;;;;14.58;100.00;101014.28;4976969;28;20053;-82
2021/08/18 04:14:50;;;;;;;41.65;22.45;;;;;;;14.62;100.00;101015.63;4980230;28;20085;-81
2021/08/18 04:17:15;;;;;;;43.47;22.33;;;;;;;14.61;100.00;101013.91;4981150;28;20141;-83
2021/08/18 04:19:41;;;;;;;42.88;23.20;;;;;;;14.61;100.00;101013.09;4982576;28;20050;-83
2021/08/18 04:22:07;;;;;;;38.67;22.67;;;;;;;14.63;100.00;101011.06;4959185;28;20054;-81
2021/08/18 04:24:33;;;;;;;42.20;22.63;;;;;;;14.63;100.00;101013.75;4983607;28;20050;-83
2021/08/18 04:26:59;;;;;;;39.88;21.15;;;;;;;14.60;100.00;101006.84;4970067;28;20073;-81
2021/08/18 04:29:24;;;;;;;38.00;21.48;;;;;;;14.59;100.00;101010.59;4983823;28;20140;-82
2021/08/18 04:31:50;;;;;;;39.30;22.10;;;;;;;14.57;100.00;101017.19;4986683;28;20076;-80
2021/08/18 04:34:15;;;;;;;39.90;22.20;;;;;;;14.55;100.00;101014.66;4964965;28;20485;-84
2021/08/18 04:36:40;;;;;;;37.70;20.33;;;;;;;14.57;100.00;101015.31;4970657;28;20042;-82
2021/08/18 04:39:06;;;;;;;39.75;22.00;;;;;;;14.59;100.00;101012.47;4967911;28;20975;-81
2021/08/18 04:41:31;;;;;;;36.08;19.90;;;;;;;14.59;100.00;101005.19;4978749;28;20371;-82
2021/08/18 04:43:57;;;;;;;38.42;21.25;;;;;;;14.59;100.00;101010.59;4989645;28;20047;-81
2021/08/18 04:46:22;;;;;;;36.38;19.65;;;;;;;14.57;100.00;101007.22;4987967;28;20045;-81
2021/08/18 04:48:47;;;;;;;37.15;20.63;;;;;;;14.56;100.00;101005.56;4985931;28;20042;-81
2021/08/18 04:51:13;;;;;;;36.85;19.65;;;;;;;14.56;100.00;101016.38;4969977;28;20141;-81
2021/08/18 04:53:38;;;;;;;36.40;19.52;;;;;;;14.56;100.00;101010.13;4990866;28;20506;-81
2021/08/18 04:56:04;;;;;;;40.50;20.52;;;;;;;14.56;100.00;101013.66;5005112;28;20232;-81
2021/08/18 04:58:29;;;;;;;38.42;19.55;;;;;;;14.57;100.00;101017.19;4989988;28;20487;-82
2021/08/18 05:00:54;;;;;;;40.08;20.25;;;;;;;14.59;100.00;101021.41;4985090;28;20038;-82
2021/08/18 05:03:20;;;;;;;37.75;20.13;;;;;;;14.60;100.00;101020.34;4988320;28;20081;-81
2021/08/18 05:05:45;;;;;;;39.55;19.70;;;;;;;14.56;100.00;101019.06;4971186;28;20041;-81
2021/08/18 05:08:11;;;;;;;36.75;20.17;;;;;;;14.56;100.00;101010.97;4987732;28;20045;-82
2021/08/18 05:10:37;;;;;;;33.83;19.52;;;;;;;14.56;100.00;101020.94;4987931;28;20038;-82
2021/08/18 05:13:04;;;;;;;42.40;19.60;;;;;;;14.56;100.00;101015.53;4984928;28;20148;-83
2021/08/18 05:15:30;;;;;;;38.45;20.85;;;;;;;14.56;100.00;101016.38;4989098;28;20082;-83
2021/08/18 05:17:56;;;;;;;39.85;20.50;;;;;;;14.61;100.00;101013.91;4989282;28;20073;-82
2021/08/18 05:20:22;;;;;;;36.88;18.98;;;;;;;14.59;100.00;101016.00;4986989;28;20046;-83
2021/08/18 05:22:48;;;;;;;42.42;23.40;;;;;;;14.60;100.00;101020.34;4988125;28;20057;-82
2021/08/18 05:25:15;;;;;;;38.47;22.00;;;;;;;14.63;100.00;101014.59;4986570;28;20439;-82
2021/08/18 05:27:42;;;;;;;40.45;20.88;;;;;;;14.62;100.00;101015.63;4989254;28;20470;-82
2021/08/18 05:30:09;;;;;;;36.95;21.40;;;;;;;14.61;100.00;101013.91;4988950;28;20131;-82
2021/08/18 05:32:38;;;;;;;38.67;20.63;;;;;;;14.59;100.00;101012.47;4989255;28;20042;-81
2021/08/18 05:35:05;;;;;;;;;;;;;;;14.62;100.00;101010.22;4972981;28;20046;-82
2021/08/18 05:37:30;;;;;;;36.00;18.08;;;;;;;14.52;100.00;101001.53;4985783;28;19976;-81
2021/08/18 05:39:56;;;;;;;36.38;20.00;;;;;;;14.54;100.00;101015.69;4985235;28;20398;-83
2021/08/18 05:42:21;;;;;;;30.63;17.52;;;;;;;14.56;100.00;101015.53;4986115;28;20628;-83
2021/08/18 05:44:46;;;;;;;32.03;17.17;;;;;;;14.57;100.00;101012.63;4987103;28;20120;-82
2021/08/18 05:47:13;;;;;;;30.92;16.85;;;;;;;14.57;100.00;101019.91;4984670;28;20053;-82
2021/08/18 05:49:38;;;;;;;34.15;16.85;;;;;;;14.60;100.00;101022.22;4985346;28;20131;-83
2021/08/18 05:52:04;;;;;;;32.50;17.33;;;;;;;14.61;100.00;101022.03;4985085;28;20043;-82
2021/08/18 05:54:29;;;;;;;31.58;16.70;;;;;;;14.61;100.00;101019.31;4980578;28;20052;-82
2021/08/18 05:56:55;;;;;;;29.23;15.57;;;;;;;14.65;100.00;101009.84;4985402;28;20401;-83
2021/08/18 05:59:20;;;;;;;28.38;15.95;;;;;;;14.62;100.00;101015.63;4986069;28;20054;-81
2021/08/18 06:01:45;;;;;;;33.78;17.60;;;;;;;14.63;100.00;101017.28;4986143;28;20038;-81
2021/08/18 06:04:11;;;;;;;30.25;15.60;;;;;;;14.64;100.00;101013.59;4983812;28;20050;-83
2021/08/18 06:06:36;;;;;;;31.40;16.38;;;;;;;14.66;100.00;101011.50;4968342;28;20046;-81
2021/08/18 06:09:02;;;;;;;27.73;14.50;;;;;;;14.66;100.00;101022.31;4984603;28;20120;-81
2021/08/18 06:11:27;;;;;;;26.83;16.15;;;;;;;14.69;100.00;101025.69;4985988;28;20531;-80
2021/08/18 06:13:53;;;;;;;30.33;15.90;;;;;;;14.71;100.00;101023.63;4963149;28;20500;-82
2021/08/18 06:16:18;;;;;;;26.58;15.30;;;;;;;14.77;100.00;101025.59;4996048;28;20051;-81
2021/08/18 06:18:44;;;;;;;25.73;14.45;;;;;;;14.78;100.00;101019.16;4983187;28;20042;-83
2021/08/18 06:21:09;;;;;;;24.42;15.38;;;;;;;14.77;100.00;101025.59;4967358;28;20053;-81
2021/08/18 06:23:35;;;;;;;27.20;14.85;;;;;;;14.79;100.00;101021.69;4985933;28;20112;-82
2021/08/18 06:26:00;;;;;;;23.45;14.57;;;;;;;14.81;100.00;101025.03;4952897;28;20287;-81
2021/08/18 06:28:26;;;;;;;26.52;13.48;;;;;;;14.85;100.00;101017.41;4972421;28;20388;-82
2021/08/18 06:30:53;;;;;;;26.15;13.90;;;;;;;14.89;100.00;101032.19;4977911;28;20058;-80
2021/08/18 06:33:18;;;;;;;24.65;12.18;;;;;;;14.91;100.00;101024.75;4985254;28;20145;-82
2021/08/18 06:35:43;;;;;;;23.92;12.98;;;;;;;14.94;100.00;101027.09;4985138;28;20372;-81
2021/08/18 06:38:09;;;;;;;24.75;13.20;;;;;;;14.92;100.00;101023.72;4951149;28;20050;-83
2021/08/18 06:40:35;;;;;;;23.88;13.63;;;;;;;15.00;100.00;101029.03;4985802;28;20439;-81
2021/08/18 06:43:00;;;;;;;23.60;12.27;;;;;;;15.06;100.00;101030.16;4977464;28;20374;-82
2021/08/18 06:45:26;;;;;;;21.08;11.73;;;;;;;15.04;100.00;101034.88;4983921;28;20050;-80
2021/08/18 06:47:52;;;;;;;21.48;12.18;;;;;;;15.02;100.00;101027.00;4981640;28;20597;-81
2021/08/18 06:50:17;;;;;;;22.27;11.82;;;;;;;15.04;100.00;101030.31;4980922;28;20133;-83
2021/08/18 06:52:43;;;;;;;20.60;12.05;;;;;;;15.07;100.00;101029.09;4984902;28;20130;-83
2021/08/18 06:55:09;;;;;;;19.92;12.70;;;;;;;15.08;100.00;101026.22;4983585;28;20048;-81
2021/08/18 06:57:35;;;;;;;20.45;12.05;;;;;;;15.09;100.00;101033.31;4985448;28;20183;-81
2021/08/18 07:00:00;;;;;;;21.45;12.00;;;;;;;15.15;100.00;101034.41;4984126;28;20061;-82
2021/08/18 07:02:25;;;;;;;18.38;11.20;;;;;;;15.19;100.00;101034.88;4982691;28;20482;-82
2021/08/18 07:04:51;;;;;;;18.08;11.60;;;;;;;15.19;100.00;101041.13;4985898;28;20057;-81
2021/08/18 07:07:16;;;;;;;20.30;10.88;;;;;;;15.23;100.00;101044.28;4983378;28;20052;-83
2021/08/18 07:09:42;;;;;;;18.75;11.45;;;;;;;15.25;100.00;101043.09;4981931;28;20141;-80
2021/08/18 07:12:07;;;;;;;20.67;10.52;;;;;;;15.29;100.00;101044.38;4984528;28;20051;-83
2021/08/18 07:14:33;;;;;;;19.80;10.00;;;;;;;15.34;100.00;101050.06;4984772;28;20184;-81
2021/08/18 07:16:58;;;;;;;17.70;9.82;;;;;;;15.29;100.00;101049.78;4978511;28;20062;-81
2021/08/18 07:19:24;;;;;;;19.35;9.48;;;;;;;15.32;100.00;101049.41;4980200;28;20054;-82
2021/08/18 07:21:49;;;;;;;14.95;9.35;;;;;;;15.33;100.00;101034.00;4984916;28;20042;-80
2021/08/18 07:24:14;;;;;;;16.83;8.27;;;;;;;15.35;100.00;101043.59;4982978;28;20046;-84
2021/08/18 07:26:40;;;;;;;16.88;8.93;;;;;;;15.37;100.00;101053.41;4983887;28;20070;-81
2021/08/18 07:29:05;;;;;;;13.48;8.98;;;;;;;15.39;100.00;101046.75;4967157;28;20042;-81
2021/08/18 07:31:30;;;;;;;13.55;8.90;;;;;;;15.44;100.00;101052.44;4979472;28;20047;-80
2021/08/18 07:33:56;;;;;;;13.68;8.73;;;;;;;15.39;100.00;101038.66;4976077;28;20238;-81
2021/08/18 07:36:22;;;;;;;11.77;7.80;;;;;;;15.46;100.00;101046.88;4982985;28;20042;-82
2021/08/18 07:38:47;;;;;;;11.55;6.82;;;;;;;15.53;100.00;101045.91;5000007;28;20034;-82
2021/08/18 07:41:13;;;;;;;13.93;7.40;;;;;;;15.60;100.00;101035.16;4978093;28;20426;-83
2021/08/18 07:43:38;;;;;;;13.23;7.05;;;;;;;15.61;100.00;101042.25;4979904;28;20410;-84
2021/08/18 07:46:04;;;;;;;14.15;6.65;;;;;;;15.62;100.00;101032.25;4983636;28;20108;-80
2021/08/18 07:48:31;;;;;;;12.88;7.38;;;;;;;15.63;100.00;101042.06;4968591;28;20470;-82
2021/08/18 07:50:57;;;;;;;12.60;6.97;;;;;;;15.69;100.00;101031.34;5000042;28;20042;-84
2021/08/18 07:53:22;;;;;;;10.02;5.97;;;;;;;15.72;100.00;101039.06;4983634;28;20062;-84
2021/08/18 07:55:47;;;;;;;12.60;6.53;;;;;;;15.83;100.00;101039.59;5006667;28;20080;-81
2021/08/18 07:58:13;;;;;;;12.10;6.57;;;;;;;15.89;100.00;101042.38;4946176;28;20126;-83
2021/08/18 08:00:39;;;;;;;11.15;6.05;;;;;;;15.89;100.00;101039.66;4998617;28;20058;-84
2021/08/18 08:03:07;;;;;;;10.23;5.47;;;;;;;15.93;100.00;101035.53;4980085;28;20541;-82
2021/08/18 08:05:33;;;;;;;12.07;5.68;;;;;;;15.93;100.00;101040.09;4981501;28;20074;-83
2021/08/18 08:07:59;;;;;;;12.73;5.93;;;;;;;15.99;100.00;101045.56;4981270;28;20461;-81
2021/08/18 08:10:24;;;;;;;8.85;5.30;;;;;;;16.02;100.00;101039.81;4983988;28;22763;-82
2021/08/18 08:12:49;;;;;;;9.57;5.60;;;;;;;16.03;100.00;101032.50;4983176;28;20042;-82
2021/08/18 08:15:15;;;;;;;10.68;5.47;;;;;;;16.10;100.00;101043.38;4981922;28;20042;-81
2021/08/18 08:17:40;;;;;;;8.05;5.53;;;;;;;16.18;100.00;101045.97;4983484;28;20046;-82
2021/08/18 08:20:06;;;;;;;9.57;4.95;;;;;;;16.30;100.00;101051.69;4994573;28;20038;-81
2021/08/18 08:22:32;;;;;;;9.23;5.05;;;;;;;16.33;100.00;101046.72;4983841;28;20100;-81
2021/08/18 08:24:58;;;;;;;8.70;5.10;;;;;;;16.33;100.00;101043.16;4982722;28;20619;-81
2021/08/18 08:27:23;;;;;;;9.20;4.93;;;;;;;16.31;100.00;101048.75;4984581;28;20065;-82
2021/08/18 08:29:48;;;;;;;8.93;4.60;;;;;;;16.32;100.00;101039.63;4982626;28;20041;-83
2021/08/18 08:32:14;;;;;;;8.85;4.88;;;;;;;16.37;100.00;101053.44;4976787;28;20042;-81
2021/08/18 08:34:39;;;;;;;8.10;4.88;;;;;;;16.37;100.00;101045.31;4985336;28;20046;-81
2021/08/18 08:37:05;;;;;;;7.47;4.57;;;;;;;16.42;100.00;101047.41;4982909;28;20030;-83
2021/08/18 08:39:31;;;;;;;8.70;5.85;;;;;;;16.44;100.00;101048.88;4969208;28;20038;-81
2021/08/18 08:41:57;;;;;;;8.60;5.30;;;;;;;16.45;100.00;101052.44;4981314;28;20045;-81
2021/08/18 08:44:24;;;;;;;11.63;5.68;;;;;;;16.51;100.00;101054.34;4982439;28;20042;-82
2021/08/18 08:46:52;;;;;;;9.10;4.95;;;;;;;16.53;100.00;101046.88;4982480;28;20092;-84
2021/08/18 08:49:19;;;;;;;8.65;5.15;;;;;;;16.55;100.00;101050.22;4983447;28;20518;-84
2021/08/18 08:51:46;;;;;;;10.10;4.93;;;;;;;16.56;100.00;101042.94;4996061;28;20390;-84
2021/08/18 08:54:14;;;;;;;8.80;4.95;;;;;;;16.56;99.15;101046.47;4980511;28;20121;-82
2021/08/18 08:56:40;;;;;;;8.82;4.63;;;;;;;16.57;99.58;101045.47;4982503;28;20042;-82
2021/08/18 08:59:05;;;;;;;9.02;4.43;;;;;;;16.66;99.82;101049.69;4984685;28;20042;-84
2021/08/18 09:02:08;;;;;;;5.80;3.90;;;;;;;16.68;99.18;101044.88;4982089;28;20535;-82
2021/08/18 09:04:46;;;;;;;6.53;4.45;;;;;;;16.70;98.03;101028.44;4946423;28;20133;-81
2021/08/18 09:07:14;;;;;;;8.13;4.78;;;;;;;16.75;98.37;101047.66;4974800;28;20047;-81
2021/08/18 09:09:53;;;;;;;10.93;5.13;;;;;;;16.87;98.39;101048.78;4962957;28;20096;-83
2021/08/18 09:12:21;;;;;;;9.60;4.75;;;;;;;16.90;97.76;101050.28;4962312;28;20488;-81
2021/08/18 09:14:46;;;;;;;7.30;4.72;;;;;;;16.87;97.38;101050.69;4965848;28;20051;-84
2021/08/18 09:17:32;;;;;;;9.55;5.07;;;;;;;16.87;96.88;101047.97;4951313;28;20146;-82
2021/08/18 09:20:08;;;;;;;9.80;5.20;;;;;;;16.88;96.93;101055.88;4968255;28;20047;-82
2021/08/18 09:22:39;;;;;;;7.15;4.20;;;;;;;16.89;97.23;101049.44;4981785;28;20129;-83
2021/08/18 09:25:23;;;;;;;5.82;4.63;;;;;;;16.98;97.20;101047.41;4962161;28;20105;-81
2021/08/18 09:28:11;;;;;;;7.47;4.57;;;;;;;17.13;97.29;101041.84;4989075;28;20149;-83
2021/08/18 09:30:39;;;;;;;8.65;4.60;;;;;;;17.28;96.27;101045.25;4985535;28;20042;-82
2021/08/18 09:33:10;;;;;;;6.40;4.05;;;;;;;17.32;94.75;101027.53;5001276;28;20336;-80
2021/08/18 09:35:36;;;;;;;7.30;4.40;;;;;;;17.36;94.63;101034.22;4986040;28;20042;-83
2021/08/18 09:38:14;;;;;;;6.70;4.22;;;;;;;17.34;95.26;101044.44;4987141;28;20073;-85
2021/08/18 09:40:48;;;;;;;8.93;3.63;;;;;;;17.29;93.43;101049.66;4982331;28;20045;-85
2021/08/18 09:43:24;;;;;;;7.60;4.38;;;;;;;17.29;93.13;101052.34;4966765;28;20290;-83
2021/08/18 09:45:58;;;;;;;6.47;4.05;;;;;;;17.24;93.74;101041.28;4985207;28;20038;-86
2021/08/18 09:48:25;;;;;;;6.25;4.18;;;;;;;17.23;94.03;101041.47;5000319;28;20120;-82
2021/08/18 09:50:55;;;;;;;7.40;4.28;;;;;;;17.32;94.06;101041.09;4998089;28;20061;-81
2021/08/18 09:53:26;;;;;;;7.40;4.75;;;;;;;17.32;93.97;101051.94;5014574;28;20096;-82
2021/08/18 09:55:55;;;;;;;6.63;3.83;;;;;;;17.34;93.81;101047.16;4990779;28;20427;-86
2021/08/18 09:58:29;;;;;;;4.53;3.20;;;;;;;17.28;92.46;101041.69;4977432;28;20136;-83
2021/08/18 10:00:57;;;;;;;5.10;3.50;;;;;;;17.22;91.85;101035.22;4985035;28;20046;-81
2021/08/18 10:03:24;;;;;;;5.03;3.28;;;;;;;17.27;91.97;101042.75;4985503;28;20141;-83
2021/08/18 10:05:50;;;;;;;7.82;3.53;;;;;;;17.28;90.59;101037.09;4982568;28;20554;-85
2021/08/18 10:08:17;;;;;;;5.93;3.03;;;;;;;17.26;89.13;101039.22;4983101;28;20050;-82
2021/08/18 10:10:42;;;;;;;4.28;3.10;;;;;;;17.30;90.75;101036.91;4986349;28;20514;-83
2021/08/18 10:13:09;;;;;;;4.60;3.08;;;;;;;17.35;90.10;101034.44;4984205;28;20042;-85
2021/08/18 10:15:36;;;;;;;4.82;3.03;;;;;;;17.45;91.37;101036.75;4964087;28;20043;-82
2021/08/18 10:18:04;;;;;;;5.25;3.20;;;;;;;17.47;89.84;101030.09;4980155;28;20043;-82
2021/08/18 10:20:31;;;;;;;4.43;2.50;;;;;;;17.56;88.38;101036.16;4966349;28;20073;-83
2021/08/18 10:23:00;;;;;;;5.97;3.10;;;;;;;17.62;87.18;101035.34;4998257;28;20488;-85
2021/08/18 10:25:35;;;;;;;4.38;3.10;;;;;;;17.73;88.53;101026.59;4984711;28;20057;-87
2021/08/18 10:28:05;;;;;;;5.07;3.00;;;;;;;17.90;88.14;101039.84;4984456;28;20064;-84
2021/08/18 10:30:30;;;;;;;5.32;2.88;;;;;;;17.94;86.01;101028.34;4984002;28;20461;-83
2021/08/18 10:32:56;;;;;;;4.10;3.20;;;;;;;17.91;85.20;101019.78;4985936;28;20125;-83
2021/08/18 10:35:47;;;;;;;5.47;2.83;;;;;;;18.07;85.07;101027.53;4999573;28;20054;-86
2021/08/18 10:38:26;;;;;;;4.88;2.90;;;;;;;18.19;84.40;101025.84;4978651;28;20631;-84
2021/08/18 10:40:52;;;;;;;3.85;2.67;;;;;;;18.23;84.77;101032.53;4992991;28;20158;-87
2021/08/18 10:43:56;;;;;;;3.30;2.25;;;;;;;18.26;82.87;101032.09;4982873;28;20053;-85
2021/08/18 10:46:22;;;;;;;4.75;2.47;;;;;;;18.27;82.52;101031.09;4981772;28;20776;-85
2021/08/18 10:48:54;;;;;;;4.82;3.25;;;;;;;18.35;83.08;101024.59;4984479;28;20043;-82
2021/08/18 10:51:38;;;;;;;5.43;2.70;;;;;;;18.44;83.74;101026.06;4978595;28;20569;-87
2021/08/18 10:54:28;;;;;;;4.95;3.00;;;;;;;18.43;82.46;101027.09;4987691;28;20040;-85
2021/08/18 10:57:02;;;;;;;4.15;2.83;;;;;;;18.43;80.53;101016.22;4993714;28;20046;-82
2021/08/18 10:59:36;;;;;;;4.30;2.45;;;;;;;18.51;82.88;101023.34;4968437;28;20105;-85
2021/08/18 11:02:02;;;;;;;4.07;2.47;;;;;;;18.53;81.59;101023.97;5000094;28;20057;-84
2021/08/18 11:04:50;;;;;;;5.03;3.30;;;;;;;18.55;81.17;101024.56;4981618;28;20042;-87
2021/08/18 11:07:16;;;;;;;4.57;2.60;;;;;;;18.58;82.04;101023.31;4993297;28;20097;-85